createdAt,value
2019-04-14T00:00:27.774Z,4.30
2019-04-14T00:02:57.845Z,4.20
2019-04-14T00:05:26.264Z,4.30
2019-04-14T00:07:55.920Z,4.50
2019-04-14T00:10:24.711Z,4.60
2019-04-14T00:12:53.531Z,4.70
2019-04-14T00:15:31.295Z,4.50
2019-04-14T00:17:52.575Z,4.50
2019-04-14T00:20:21.211Z,4.30
2019-04-14T00:22:49.628Z,4.40
2019-04-14T00:25:19.360Z,4.50
2019-04-14T00:27:48.005Z,4.40
2019-04-14T00:30:18.881Z,4.50
2019-04-14T00:32:49.021Z,4.50
2019-04-14T00:35:31.979Z,4.70
2019-04-14T00:38:02.411Z,4.50
2019-04-14T00:40:36.729Z,4.60
2019-04-14T00:43:09.879Z,4.70
2019-04-14T00:45:47.953Z,4.90
2019-04-14T00:48:16.178Z,4.90
2019-04-14T00:50:43.145Z,4.60
2019-04-14T00:53:12.151Z,4.50
2019-04-14T00:55:40.713Z,4.60
2019-04-14T00:58:10.259Z,4.50
2019-04-14T01:00:38.862Z,4.50
2019-04-14T01:03:07.300Z,4.50
2019-04-14T01:05:37.426Z,4.60
2019-04-14T01:08:07.268Z,4.60
2019-04-14T01:10:36.808Z,4.60
2019-04-14T01:13:09.231Z,4.60
2019-04-14T01:15:49.168Z,4.60
2019-04-14T01:18:05.856Z,4.60
2019-04-14T01:20:34.794Z,4.60
2019-04-14T01:23:04.180Z,4.50
2019-04-14T01:25:32.627Z,4.50
2019-04-14T01:28:01.060Z,4.40
2019-04-14T01:30:30.532Z,4.40
2019-04-14T01:32:59.073Z,4.40
2019-04-14T01:35:27.479Z,4.40
2019-04-14T01:37:57.165Z,4.10
2019-04-14T01:40:26.990Z,4.00
2019-04-14T01:42:55.524Z,3.80
2019-04-14T01:45:25.220Z,3.70
2019-04-14T01:47:53.850Z,3.60
2019-04-14T01:50:23.904Z,3.60
2019-04-14T01:53:01.038Z,3.50
2019-04-14T01:55:50.514Z,3.50
2019-04-14T01:58:20.814Z,3.50
2019-04-14T02:00:51.308Z,3.50
2019-04-14T02:03:19.869Z,3.60
2019-04-14T02:05:49.537Z,3.60
2019-04-14T02:08:18.343Z,3.60
2019-04-14T02:10:47.868Z,3.60
2019-04-14T02:13:16.377Z,3.60
2019-04-14T02:15:44.791Z,3.60
2019-04-14T02:18:14.287Z,3.60
2019-04-14T02:20:42.900Z,3.60
2019-04-14T02:23:12.450Z,3.60
2019-04-14T02:25:41.110Z,3.60
2019-04-14T02:28:09.543Z,3.50
2019-04-14T02:30:45.728Z,3.50
2019-04-14T02:36:14.216Z,3.50
2019-04-14T02:41:13.013Z,3.60
2019-04-14T02:43:41.667Z,3.60
2019-04-14T02:46:04.137Z,3.60
2019-04-14T02:48:47.925Z,3.50
2019-04-14T02:51:23.626Z,3.60
2019-04-14T02:56:07.927Z,3.50
2019-04-14T02:58:45.945Z,3.60
2019-04-14T03:01:08.180Z,3.50
2019-04-14T03:06:10.499Z,3.50
2019-04-14T03:08:45.625Z,3.50
2019-04-14T03:13:35.898Z,3.50
2019-04-14T03:18:38.894Z,3.60
2019-04-14T03:21:26.347Z,3.60
2019-04-14T03:23:48.887Z,3.60
2019-04-14T03:26:11.776Z,3.60
2019-04-14T03:28:45.598Z,3.60
2019-04-14T03:31:39.439Z,3.60
2019-04-14T03:37:16.197Z,3.60
2019-04-14T03:41:24.053Z,3.60
2019-04-14T03:44:01.632Z,3.70
2019-04-14T03:46:27.831Z,3.70
2019-04-14T03:49:00.511Z,3.70
2019-04-14T03:53:47.316Z,3.70
2019-04-14T03:56:02.457Z,3.60
2019-04-14T03:58:29.244Z,3.60
2019-04-14T04:00:57.735Z,3.60
2019-04-14T04:03:26.172Z,3.60
2019-04-14T04:05:54.680Z,3.70
2019-04-14T04:08:24.430Z,3.80
2019-04-14T04:10:55.436Z,3.80
2019-04-14T04:13:23.919Z,3.80
2019-04-14T04:15:54.065Z,3.80
2019-04-14T04:18:30.893Z,3.80
2019-04-14T04:21:01.044Z,3.70
2019-04-14T04:23:31.359Z,3.70
2019-04-14T04:26:01.899Z,3.80
2019-04-14T04:28:38.512Z,3.70
2019-04-14T04:31:08.904Z,3.70
2019-04-14T04:33:57.124Z,3.70
2019-04-14T04:36:44.203Z,3.80
2019-04-14T04:39:17.289Z,3.80
2019-04-14T04:41:45.709Z,3.80
2019-04-14T04:44:14.127Z,3.80
2019-04-14T04:46:43.720Z,3.80
2019-04-14T04:49:18.302Z,3.80
2019-04-14T04:51:42.511Z,3.80
2019-04-14T04:54:10.949Z,3.90
2019-04-14T04:56:40.449Z,3.80
2019-04-14T04:59:09.772Z,3.90
2019-04-14T05:01:38.672Z,3.90
2019-04-14T05:04:07.174Z,3.90
2019-04-14T05:06:59.552Z,3.80
2019-04-14T05:09:36.962Z,3.70
2019-04-14T05:12:11.032Z,3.70
2019-04-14T05:14:41.274Z,3.70
2019-04-14T05:17:10.170Z,3.80
2019-04-14T05:19:40.193Z,3.80
2019-04-14T05:22:09.222Z,3.90
2019-04-14T05:24:37.689Z,3.90
2019-04-14T05:27:06.118Z,4.00
2019-04-14T05:29:34.528Z,4.00
2019-04-14T05:32:02.972Z,4.00
2019-04-14T05:34:32.567Z,4.00
2019-04-14T05:37:01.194Z,3.90
2019-04-14T05:39:30.692Z,3.90
2019-04-14T05:42:07.713Z,3.90
2019-04-14T05:44:29.700Z,4.00
2019-04-14T05:46:58.245Z,4.00
2019-04-14T05:49:35.493Z,3.90
2019-04-14T05:51:56.839Z,3.80
2019-04-14T05:54:25.329Z,3.90
2019-04-14T05:56:53.782Z,3.90
2019-04-14T05:59:22.796Z,3.90
2019-04-14T06:01:51.215Z,4.00
2019-04-14T06:04:20.017Z,3.90
2019-04-14T06:06:48.688Z,3.90
2019-04-14T06:09:17.152Z,3.90
2019-04-14T06:11:45.632Z,4.00
2019-04-14T06:14:14.120Z,4.10
2019-04-14T06:16:42.553Z,4.10
2019-04-14T06:19:10.954Z,4.10
2019-04-14T06:21:39.419Z,4.10
2019-04-14T06:24:07.900Z,4.10
2019-04-14T06:26:36.324Z,4.10
2019-04-14T06:29:06.372Z,4.10
2019-04-14T06:31:52.575Z,4.10
2019-04-14T06:34:34.565Z,4.20
2019-04-14T06:37:07.302Z,4.30
2019-04-14T06:39:40.343Z,4.30
2019-04-14T06:42:08.771Z,4.30
2019-04-14T06:44:37.203Z,4.40
2019-04-14T06:47:05.638Z,4.30
2019-04-14T06:49:34.068Z,4.30
2019-04-14T06:52:02.510Z,4.30
2019-04-14T06:54:30.935Z,4.30
2019-04-14T06:56:59.371Z,4.40
2019-04-14T06:59:27.791Z,4.50
2019-04-14T07:01:56.208Z,4.40
2019-04-14T07:04:24.632Z,4.30
2019-04-14T07:06:53.072Z,4.20
2019-04-14T07:09:21.492Z,4.20
2019-04-14T07:11:49.903Z,4.20
2019-04-14T07:14:18.323Z,4.20
2019-04-14T07:16:46.739Z,4.10
2019-04-14T07:19:15.170Z,4.20
2019-04-14T07:21:43.576Z,4.20
2019-04-14T07:24:11.993Z,4.20
2019-04-14T07:26:40.759Z,4.20
2019-04-14T07:29:09.187Z,4.20
2019-04-14T07:31:47.962Z,4.20
2019-04-14T07:34:25.364Z,4.20
2019-04-14T07:37:04.239Z,4.20
2019-04-14T07:39:43.126Z,4.30
2019-04-14T07:42:22.137Z,4.40
2019-04-14T07:44:52.217Z,4.50
2019-04-14T07:47:38.551Z,4.50
2019-04-14T07:50:24.408Z,4.70
2019-04-14T07:53:06.759Z,4.80
2019-04-14T07:55:48.703Z,4.80
2019-04-14T07:58:18.777Z,4.80
2019-04-14T08:00:54.952Z,4.80
2019-04-14T08:03:41.750Z,4.80
2019-04-14T08:06:10.232Z,4.60
2019-04-14T08:08:38.647Z,4.70
2019-04-14T08:11:07.068Z,4.80
2019-04-14T08:13:35.511Z,4.90
2019-04-14T08:16:04.018Z,4.90
2019-04-14T08:18:32.449Z,5.00
2019-04-14T08:21:00.891Z,5.00
2019-04-14T08:23:29.317Z,5.00
2019-04-14T08:25:57.841Z,5.00
2019-04-14T08:28:26.235Z,5.00
2019-04-14T08:30:54.637Z,5.10
2019-04-14T08:33:23.072Z,5.00
2019-04-14T08:35:51.492Z,5.10
2019-04-14T08:38:19.931Z,5.20
2019-04-14T08:40:48.335Z,5.20
2019-04-14T08:43:33.429Z,5.30
2019-04-14T08:46:03.502Z,5.30
2019-04-14T08:48:36.317Z,5.30
2019-04-14T08:51:22.511Z,5.40
2019-04-14T08:53:55.521Z,5.50
2019-04-14T08:56:25.566Z,5.50
2019-04-14T08:58:58.310Z,5.50
2019-04-14T09:01:31.520Z,5.50
2019-04-14T09:04:07.777Z,5.50
2019-04-14T09:06:52.852Z,5.60
2019-04-14T09:09:25.927Z,5.60
2019-04-14T09:12:14.501Z,5.60
2019-04-14T09:14:31.975Z,5.60
2019-04-14T09:17:00.465Z,5.70
2019-04-14T09:19:28.891Z,5.70
2019-04-14T09:21:57.291Z,5.70
2019-04-14T09:24:25.801Z,5.80
2019-04-14T09:26:54.283Z,5.90
2019-04-14T09:29:22.736Z,5.80
2019-04-14T09:31:51.160Z,6.00
2019-04-14T09:34:19.592Z,6.10
2019-04-14T09:36:48.007Z,6.20
2019-04-14T09:39:16.436Z,6.50
2019-04-14T09:41:44.890Z,6.60
2019-04-14T09:44:13.356Z,6.80
2019-04-14T09:46:41.776Z,7.10
2019-04-14T09:49:10.322Z,7.10
2019-04-14T09:51:38.766Z,7.30
2019-04-14T09:54:07.192Z,7.20
2019-04-14T09:56:35.603Z,7.10
2019-04-14T09:59:04.091Z,7.00
2019-04-14T10:01:32.617Z,7.10
2019-04-14T10:04:01.042Z,7.10
2019-04-14T10:06:29.469Z,6.90
2019-04-14T10:08:57.896Z,6.80
2019-04-14T10:11:26.386Z,6.90
2019-04-14T10:13:54.815Z,7.20
2019-04-14T10:16:23.255Z,7.80
2019-04-14T10:18:51.712Z,7.70
2019-04-14T10:21:20.221Z,7.40
2019-04-14T10:23:48.692Z,7.50
2019-04-14T10:26:17.110Z,7.80
2019-04-14T10:28:45.612Z,7.90
2019-04-14T10:31:14.005Z,7.90
2019-04-14T10:33:42.500Z,8.20
2019-04-14T10:36:10.916Z,9.00
2019-04-14T10:38:39.328Z,9.80
2019-04-14T10:41:07.732Z,10.90
2019-04-14T10:43:36.166Z,11.00
2019-04-14T10:46:04.572Z,10.70
2019-04-14T10:48:32.986Z,10.30
2019-04-14T10:51:01.415Z,9.80
2019-04-14T10:53:29.856Z,9.60
2019-04-14T10:55:58.267Z,9.80
2019-04-14T10:58:26.704Z,9.90
2019-04-14T11:00:55.102Z,9.70
2019-04-14T11:03:23.540Z,9.40
2019-04-14T11:05:59.524Z,9.30
2019-04-14T11:08:27.958Z,9.30
2019-04-14T11:10:56.375Z,9.20
2019-04-14T11:13:24.809Z,9.50
2019-04-14T11:15:53.207Z,9.80
2019-04-14T11:18:21.632Z,9.60
2019-04-14T11:20:50.051Z,10.30
2019-04-14T11:23:18.463Z,10.80
2019-04-14T11:25:46.890Z,11.30
2019-04-14T11:28:15.307Z,12.10
2019-04-14T11:30:43.806Z,13.10
2019-04-14T11:33:28.872Z,13.80
2019-04-14T11:35:58.933Z,13.20
2019-04-14T11:38:28.978Z,12.70
2019-04-14T11:40:59.037Z,12.60
2019-04-14T11:43:27.452Z,13.00
2019-04-14T11:45:55.968Z,13.10
2019-04-14T11:48:24.377Z,12.30
2019-04-14T11:50:52.853Z,12.30
2019-04-14T11:53:21.256Z,12.50
2019-04-14T11:55:49.696Z,12.30
2019-04-14T11:58:18.114Z,11.70
2019-04-14T12:00:53.931Z,11.50
2019-04-14T12:03:33.186Z,11.40
2019-04-14T12:06:06.035Z,11.30
2019-04-14T12:08:38.857Z,11.20
2019-04-14T12:11:07.356Z,11.20
2019-04-14T12:13:35.769Z,11.50
2019-04-14T12:16:04.368Z,12.50
2019-04-14T12:18:32.776Z,13.30
2019-04-14T12:21:01.222Z,13.70
2019-04-14T12:23:29.623Z,13.50
2019-04-14T12:26:05.216Z,13.70
2019-04-14T12:28:28.465Z,14.50
2019-04-14T12:30:57.578Z,15.40
2019-04-14T12:33:26.088Z,15.70
2019-04-14T12:35:54.786Z,15.50
2019-04-14T12:38:23.182Z,14.90
2019-04-14T12:40:52.456Z,14.10
2019-04-14T12:43:31.783Z,13.50
2019-04-14T12:46:16.664Z,13.80
2019-04-14T12:49:03.369Z,14.00
2019-04-14T12:51:33.414Z,13.70
2019-04-14T12:54:01.854Z,13.20
2019-04-14T12:56:30.276Z,13.20
2019-04-14T12:59:00.356Z,13.10
2019-04-14T13:01:30.597Z,12.80
2019-04-14T13:03:59.172Z,12.80
2019-04-14T13:06:27.601Z,12.50
2019-04-14T13:08:56.013Z,12.80
2019-04-14T13:11:24.436Z,12.90
2019-04-14T13:13:52.847Z,12.80
2019-04-14T13:16:21.272Z,12.50
2019-04-14T13:18:49.696Z,12.80
2019-04-14T13:21:18.136Z,13.30
2019-04-14T13:23:46.693Z,12.90
2019-04-14T13:26:15.126Z,12.70
2019-04-14T13:28:43.535Z,12.60
2019-04-14T13:31:11.961Z,12.40
2019-04-14T13:33:40.380Z,12.30
2019-04-14T13:36:08.817Z,12.40
2019-04-14T13:38:37.248Z,12.60
2019-04-14T13:41:05.668Z,12.50
2019-04-14T13:43:34.095Z,12.40
2019-04-14T13:46:02.509Z,12.70
2019-04-14T13:48:30.925Z,12.90
2019-04-14T13:50:59.394Z,12.60
2019-04-14T13:53:27.863Z,12.30
2019-04-14T13:55:56.263Z,12.40
2019-04-14T13:58:24.688Z,12.50
2019-04-14T14:00:53.109Z,12.60
2019-04-14T14:03:21.619Z,12.60
2019-04-14T14:05:50.033Z,12.50
2019-04-14T14:08:18.455Z,12.40
2019-04-14T14:10:46.898Z,12.40
2019-04-14T14:13:22.775Z,12.40
2019-04-14T14:15:52.816Z,12.40
2019-04-14T14:18:37.981Z,12.20
2019-04-14T14:21:17.320Z,12.20
2019-04-14T14:23:53.240Z,12.30
2019-04-14T14:26:23.291Z,12.60
2019-04-14T14:29:11.057Z,12.80
2019-04-14T14:31:39.482Z,12.70
2019-04-14T14:34:07.904Z,12.70
2019-04-14T14:36:36.310Z,12.50
2019-04-14T14:39:10.416Z,12.30
2019-04-14T14:41:38.876Z,12.20
2019-04-14T14:44:07.315Z,12.20
2019-04-14T14:46:49.100Z,12.20
2019-04-14T14:49:35.443Z,12.30
2019-04-14T14:52:08.159Z,12.20
2019-04-14T14:54:36.579Z,12.30
2019-04-14T14:57:06.664Z,12.50
2019-04-14T14:59:35.117Z,12.60
2019-04-14T15:02:05.312Z,12.80
2019-04-14T15:04:35.321Z,13.00
2019-04-14T15:07:03.789Z,13.00
2019-04-14T15:09:32.216Z,12.90
2019-04-14T15:12:00.656Z,12.60
2019-04-14T15:14:29.160Z,12.50
2019-04-14T15:16:57.568Z,12.30
2019-04-14T15:19:26.012Z,12.10
2019-04-14T15:21:54.440Z,11.90
2019-04-14T15:24:22.989Z,11.90
2019-04-14T15:26:51.445Z,11.90
2019-04-14T15:29:19.941Z,11.90
2019-04-14T15:31:48.382Z,12.00
2019-04-14T15:34:18.566Z,12.00
2019-04-14T15:36:47.141Z,12.10
2019-04-14T15:39:15.566Z,12.30
2019-04-14T15:41:44.016Z,12.30
2019-04-14T15:44:12.452Z,12.40
2019-04-14T15:46:40.880Z,12.30
2019-04-14T15:49:09.323Z,12.20
2019-04-14T15:51:37.750Z,12.20
2019-04-14T15:54:06.232Z,12.30
2019-04-14T15:56:48.076Z,12.40
2019-04-14T15:59:21.053Z,12.40
2019-04-14T16:02:03.040Z,12.30
2019-04-14T16:04:33.088Z,12.30
2019-04-14T16:07:12.284Z,12.10
2019-04-14T16:09:51.239Z,12.00
2019-04-14T16:12:37.509Z,11.90
2019-04-14T16:15:11.884Z,11.70
2019-04-14T16:17:44.664Z,11.60
2019-04-14T16:20:23.798Z,11.50
2019-04-14T16:22:52.215Z,11.50
2019-04-14T16:25:22.273Z,11.70
2019-04-14T16:27:58.303Z,11.70
2019-04-14T16:30:28.362Z,11.60
2019-04-14T16:33:13.206Z,11.60
2019-04-14T16:35:42.099Z,11.50
2019-04-14T16:38:10.613Z,11.50
2019-04-14T16:40:39.027Z,11.50
2019-04-14T16:43:07.450Z,11.40
2019-04-14T16:45:35.863Z,11.50
2019-04-14T16:48:04.578Z,11.40
2019-04-14T16:50:33.188Z,11.30
2019-04-14T16:53:21.587Z,11.50
2019-04-14T16:55:51.725Z,11.50
2019-04-14T16:58:21.777Z,11.40
2019-04-14T17:01:04.103Z,11.30
2019-04-14T17:03:32.628Z,11.30
2019-04-14T17:06:01.080Z,11.20
2019-04-14T17:08:29.531Z,11.20
2019-04-14T17:10:57.969Z,11.20
2019-04-14T17:13:28.095Z,10.90
2019-04-14T17:16:04.493Z,10.80
2019-04-14T17:18:40.738Z,10.80
2019-04-14T17:21:27.584Z,10.70
2019-04-14T17:23:57.715Z,10.60
2019-04-14T17:26:44.683Z,10.50
2019-04-14T17:29:14.758Z,10.50
2019-04-14T17:31:57.184Z,10.50
2019-04-14T17:34:45.638Z,10.50
2019-04-14T17:37:33.271Z,10.50
2019-04-14T17:40:15.358Z,10.40
2019-04-14T17:42:51.299Z,10.20
2019-04-14T17:45:46.241Z,10.10
2019-04-14T17:48:32.992Z,10.10
2019-04-14T17:51:09.152Z,10.00
2019-04-14T17:53:41.937Z,9.80
2019-04-14T17:56:20.525Z,9.80
2019-04-14T17:58:53.288Z,9.70
2019-04-14T18:01:29.371Z,9.70
2019-04-14T18:03:59.462Z,9.70
2019-04-14T18:06:35.593Z,9.50
2019-04-14T18:09:07.410Z,9.50
2019-04-14T18:11:49.601Z,9.60
2019-04-14T18:14:19.680Z,9.50
2019-04-14T18:16:59.028Z,9.50
2019-04-14T18:19:35.087Z,9.50
2019-04-14T18:22:03.693Z,9.50
2019-04-14T18:24:41.593Z,9.30
2019-04-14T18:27:02.244Z,9.30
2019-04-14T18:29:32.310Z,9.20
2019-04-14T18:32:08.393Z,9.20
2019-04-14T18:34:44.296Z,9.20
2019-04-14T18:37:14.355Z,9.10
2019-04-14T18:39:56.636Z,9.00
2019-04-14T18:42:32.488Z,8.90
2019-04-14T18:45:08.484Z,8.90
2019-04-14T18:47:50.270Z,8.90
2019-04-14T18:50:23.063Z,8.80
2019-04-14T18:52:55.608Z,8.80
2019-04-14T18:55:25.676Z,8.60
2019-04-14T18:58:01.171Z,8.40
2019-04-14T19:00:43.596Z,8.40
2019-04-14T19:03:12.028Z,8.50
2019-04-14T19:05:40.553Z,8.50
2019-04-14T19:08:08.945Z,8.30
2019-04-14T19:10:37.362Z,8.30
2019-04-14T19:13:09.249Z,8.10
2019-04-14T19:15:48.453Z,8.00
2019-04-14T19:18:18.512Z,8.00
2019-04-14T19:20:48.576Z,8.00
2019-04-14T19:23:16.980Z,8.00
2019-04-14T19:25:45.400Z,7.90
2019-04-14T19:28:13.818Z,7.80
2019-04-14T19:30:42.220Z,7.90
2019-04-14T19:33:10.623Z,8.00
2019-04-14T19:35:39.056Z,7.90
2019-04-14T19:38:07.467Z,7.80
2019-04-14T19:40:36.137Z,7.70
2019-04-14T19:43:04.572Z,7.70
2019-04-14T19:45:33.024Z,7.60
2019-04-14T19:48:01.495Z,7.50
2019-04-14T19:50:29.909Z,7.40
2019-04-14T19:52:58.320Z,7.40
2019-04-14T19:55:26.767Z,7.40
2019-04-14T19:57:55.176Z,7.30
2019-04-14T20:00:23.574Z,7.30
2019-04-14T20:02:52.013Z,7.20
2019-04-14T20:05:20.426Z,7.20
2019-04-14T20:07:48.842Z,7.30
2019-04-14T20:10:18.280Z,7.30
2019-04-14T20:12:46.786Z,7.20
2019-04-14T20:15:17.480Z,7.10
2019-04-14T20:17:50.242Z,7.10
2019-04-14T20:20:20.275Z,7.00
2019-04-14T20:22:56.401Z,7.00
2019-04-14T20:25:44.706Z,7.00
2019-04-14T20:28:14.794Z,6.90
2019-04-14T20:30:44.833Z,6.90
2019-04-14T20:33:13.259Z,7.00
2019-04-14T20:35:41.661Z,7.10
2019-04-14T20:38:10.078Z,7.00
2019-04-14T20:40:38.496Z,6.90
2019-04-14T20:43:07.001Z,6.80
2019-04-14T20:45:35.411Z,6.60
2019-04-14T20:48:04.000Z,6.60
2019-04-14T20:50:32.403Z,6.60
2019-04-14T20:53:00.833Z,6.60
2019-04-14T20:55:29.240Z,6.60
2019-04-14T20:57:57.671Z,6.60
2019-04-14T21:00:26.252Z,6.50
2019-04-14T21:03:12.745Z,6.60
2019-04-14T21:05:42.811Z,6.50
2019-04-14T21:08:15.598Z,6.60
2019-04-14T21:10:51.332Z,6.60
2019-04-14T21:13:24.495Z,6.50
2019-04-14T21:15:54.536Z,6.50
2019-04-14T21:18:27.783Z,6.50
2019-04-14T21:21:03.807Z,6.60
2019-04-14T21:23:42.899Z,6.50
2019-04-14T21:26:29.664Z,6.50
2019-04-14T21:28:59.711Z,6.50
2019-04-14T21:31:29.763Z,6.40
2019-04-14T21:33:59.832Z,6.30
2019-04-14T21:36:35.689Z,6.40
2019-04-14T21:39:08.165Z,6.30
2019-04-14T21:41:37.530Z,6.20
2019-04-14T21:44:05.960Z,6.30
2019-04-14T21:46:34.374Z,6.20
2019-04-14T21:49:02.800Z,6.20
2019-04-14T21:51:49.110Z,6.10
2019-04-14T21:54:18.475Z,6.10
2019-04-14T21:56:48.529Z,6.10
2019-04-14T21:59:18.600Z,6.00
2019-04-14T22:02:05.152Z,5.90
2019-04-14T22:04:47.137Z,5.90
2019-04-14T22:07:19.871Z,6.00
2019-04-14T22:09:48.785Z,6.00
2019-04-14T22:12:17.189Z,5.90
2019-04-14T22:14:45.618Z,5.90
2019-04-14T22:17:14.088Z,6.00
2019-04-14T22:19:42.521Z,6.10
2019-04-14T22:22:10.932Z,6.10
2019-04-14T22:24:39.404Z,6.20
2019-04-14T22:27:07.844Z,6.20
2019-04-14T22:29:36.268Z,6.10
2019-04-14T22:32:04.748Z,6.00
2019-04-14T22:34:33.175Z,6.00
2019-04-14T22:37:01.588Z,6.00
2019-04-14T22:39:30.088Z,6.00
2019-04-14T22:41:58.479Z,6.00
2019-04-14T22:44:26.903Z,6.00
2019-04-14T22:46:55.313Z,6.10
2019-04-14T22:49:23.757Z,6.10
2019-04-14T22:51:52.170Z,6.00
2019-04-14T22:54:20.598Z,5.90
2019-04-14T22:56:49.004Z,5.90
2019-04-14T22:59:17.416Z,5.90
2019-04-14T23:01:50.404Z,5.90
2019-04-14T23:04:38.791Z,5.90
2019-04-14T23:07:26.895Z,5.90
2019-04-14T23:09:56.979Z,5.90
2019-04-14T23:12:27.031Z,5.80
2019-04-14T23:17:41.808Z,5.70
2019-04-14T23:20:28.562Z,5.60
2019-04-14T23:23:04.628Z,5.60
2019-04-14T23:25:33.538Z,5.60
2019-04-14T23:28:01.953Z,5.50
2019-04-14T23:30:30.430Z,5.30
2019-04-14T23:32:58.836Z,5.20
2019-04-14T23:35:27.540Z,5.20
2019-04-14T23:37:55.950Z,5.20
2019-04-14T23:40:24.376Z,5.20
2019-04-14T23:42:52.796Z,5.20
2019-04-14T23:45:21.215Z,5.20
2019-04-14T23:47:49.633Z,5.20
2019-04-14T23:50:18.073Z,5.20
2019-04-14T23:52:46.553Z,5.30
2019-04-14T23:55:14.974Z,5.30
2019-04-14T23:57:43.387Z,5.30
